Time;durP1;ratioP1;P1;durP2;ratioP2;P2;SDS_P1;SDS_P2;PMS_P1;PMS_P2;Temp;Humidity;BMP_temperature;BMP_pressure;BME280_temperature;BME280_humidity;BME280_pressure;Samples;Min_cycle;Max_cycle;Signal;HPM_P1;HPM_P2
2022/09/14 00:00:22;;;;;;;3.75;3.05;;;23.40;93.80;;;;;;10093480;28;20511;-59
2022/09/14 00:05:13;;;;;;;5.63;3.22;;;23.50;93.80;;;;;;10083741;28;20029;-59
2022/09/14 00:10:04;;;;;;;7.05;3.50;;;23.60;93.80;;;;;;10095279;28;20028;-61
2022/09/14 00:14:54;;;;;;;5.88;3.28;;;23.50;93.90;;;;;;10089001;28;20129;-59
2022/09/14 00:19:45;;;;;;;5.93;3.50;;;23.50;94.10;;;;;;10094244;28;20108;-57
2022/09/14 00:24:36;;;;;;;9.43;3.60;;;23.30;94.40;;;;;;10093114;28;20029;-60
2022/09/14 00:29:27;;;;;;;4.60;3.95;;;23.10;94.90;;;;;;10075773;28;20036;-60
2022/09/14 00:34:18;;;;;;;6.60;3.72;;;23.00;95.30;;;;;;10085492;28;20032;-62
2022/09/14 00:39:09;;;;;;;6.72;4.20;;;23.00;95.60;;;;;;10087438;28;20122;-60
2022/09/14 00:44:25;;;;;;;6.68;4.68;;;22.80;95.70;;;;;;10093388;28;20044;-59
2022/09/14 00:49:21;;;;;;;5.75;3.85;;;22.70;96.70;;;;;;10092909;28;20432;-58
2022/09/14 00:54:11;;;;;;;8.55;4.50;;;22.50;96.90;;;;;;10093872;28;20112;-59
2022/09/14 00:59:09;;;;;;;10.15;4.30;;;22.30;97.50;;;;;;10093441;28;20112;-58
2022/09/14 01:04:00;;;;;;;6.65;4.32;;;22.30;97.90;;;;;;10090255;28;20045;-59
2022/09/14 01:09:09;;;;;;;5.88;3.85;;;22.30;98.20;;;;;;10092560;28;20392;-60
2022/09/14 01:14:15;;;;;;;7.65;4.70;;;22.40;98.60;;;;;;10085927;28;20117;-60
2022/09/14 01:19:13;;;;;;;6.43;4.28;;;22.40;98.80;;;;;;10092613;28;20013;-60
2022/09/14 01:24:32;;;;;;;5.82;3.95;;;22.20;99.10;;;;;;10092205;28;20103;-62
2022/09/14 01:29:30;;;;;;;9.68;5.10;;;21.90;99.90;;;;;;10089678;28;20106;-59
2022/09/14 01:34:53;;;;;;;6.30;4.40;;;21.80;99.90;;;;;;10089040;28;20025;-60
2022/09/14 01:39:49;;;;;;;7.80;5.07;;;21.80;99.90;;;;;;10105918;28;20501;-59
2022/09/14 01:44:47;;;;;;;7.65;4.55;;;21.50;99.90;;;;;;10131290;28;20032;-59
2022/09/14 01:49:51;;;;;;;10.18;5.25;;;21.60;99.90;;;;;;10132853;28;20074;-58
2022/09/14 01:54:50;;;;;;;7.30;4.82;;;21.50;99.90;;;;;;10132626;28;20032;-59
2022/09/14 01:59:45;;;;;;;9.52;5.93;;;21.60;99.90;;;;;;10131987;28;20383;-60
2022/09/14 02:04:51;;;;;;;8.02;5.45;;;21.70;99.90;;;;;;10131223;28;20039;-58
2022/09/14 02:09:43;;;;;;;9.52;6.25;;;21.70;99.90;;;;;;10131920;28;20074;-58
2022/09/14 02:14:34;;;;;;;9.50;5.95;;;21.70;99.90;;;;;;10133792;28;20017;-58
2022/09/14 02:19:27;;;;;;;8.65;5.63;;;21.70;99.90;;;;;;10139787;28;20020;-59
2022/09/14 02:24:19;;;;;;;11.73;5.47;;;21.70;99.90;;;;;;10137066;28;20550;-59
2022/09/14 02:29:10;;;;;;;7.60;4.93;;;21.70;99.90;;;;;;10139188;28;20546;-59
2022/09/14 02:34:26;;;;;;;11.23;6.63;;;21.60;99.90;;;;;;10138952;28;20024;-58
2022/09/14 02:39:23;;;;;;;9.75;5.82;;;21.60;99.90;;;;;;10139519;28;20489;-61
2022/09/14 02:44:38;;;;;;;9.30;5.97;;;21.60;99.90;;;;;;10121325;28;20048;-60
2022/09/14 02:49:52;;;;;;;10.98;5.40;;;21.60;99.90;;;;;;10120988;28;20032;-61
2022/09/14 02:54:49;;;;;;;10.27;6.68;;;21.70;99.90;;;;;;10138837;28;20064;-59
2022/09/14 02:59:40;;;;;;;8.38;5.57;;;21.60;99.90;;;;;;10137390;28;20103;-59
2022/09/14 03:04:31;;;;;;;12.18;6.47;;;21.50;99.90;;;;;;10120225;28;20127;-59
2022/09/14 03:09:21;;;;;;;7.18;5.72;;;21.50;99.90;;;;;;10134874;28;20429;-62
2022/09/14 03:14:12;;;;;;;13.43;6.30;;;21.50;99.90;;;;;;10134535;28;20028;-60
2022/09/14 03:19:04;;;;;;;10.73;6.68;;;21.50;99.90;;;;;;10120760;28;20082;-62
2022/09/14 03:23:56;;;;;;;8.60;6.28;;;21.40;99.90;;;;;;10136892;28;20399;-62
2022/09/14 03:28:51;;;;;;;9.48;6.38;;;21.30;99.90;;;;;;10137209;28;20020;-59
2022/09/14 03:33:42;;;;;;;18.65;7.53;;;21.20;99.90;;;;;;10137133;28;20043;-59
2022/09/14 03:38:32;;;;;;;11.80;6.28;;;21.00;99.90;;;;;;10137677;28;20041;-61
2022/09/14 03:43:23;;;;;;;10.35;6.53;;;21.10;99.90;;;;;;10136132;28;20033;-59
2022/09/14 03:48:14;;;;;;;9.70;6.68;;;21.10;99.90;;;;;;10117895;28;20027;-59
2022/09/14 03:53:05;;;;;;;10.00;6.70;;;21.00;99.90;;;;;;10133821;28;20024;-59
2022/09/14 03:57:55;;;;;;;9.82;7.00;;;21.00;99.90;;;;;;10122934;28;20021;-60
2022/09/14 04:02:46;;;;;;;10.82;6.45;;;20.90;99.90;;;;;;10135419;28;20029;-57
2022/09/14 04:07:37;;;;;;;11.15;6.25;;;20.90;99.90;;;;;;10132490;28;20024;-59
2022/09/14 04:12:27;;;;;;;8.73;6.75;;;20.90;99.90;;;;;;10110793;28;20044;-59
2022/09/14 04:17:18;;;;;;;13.02;6.85;;;20.80;99.90;;;;;;10130361;28;20039;-58
2022/09/14 04:22:09;;;;;;;12.98;7.57;;;20.80;99.90;;;;;;10130783;28;20045;-59
2022/09/14 04:26:59;;;;;;;13.88;7.88;;;20.90;99.90;;;;;;10134086;28;20422;-62
2022/09/14 04:31:50;;;;;;;9.80;7.68;;;20.80;99.90;;;;;;10134026;28;20013;-60
2022/09/14 04:36:41;;;;;;;11.18;6.53;;;20.70;99.90;;;;;;10135435;28;20040;-61
2022/09/14 04:41:32;;;;;;;11.38;7.18;;;20.80;99.90;;;;;;10134016;28;20032;-59
2022/09/14 04:46:26;;;;;;;11.95;6.65;;;20.80;99.90;;;;;;10133532;28;20029;-62
2022/09/14 04:51:20;;;;;;;14.20;7.63;;;20.90;99.90;;;;;;10133582;28;20183;-57
2022/09/14 04:56:13;;;;;;;10.60;7.40;;;20.80;99.90;;;;;;10115301;28;20522;-59
2022/09/14 05:01:07;;;;;;;12.15;7.60;;;20.90;99.90;;;;;;10133208;28;20275;-59
2022/09/14 05:06:02;;;;;;;12.95;6.78;;;20.90;99.90;;;;;;10128894;28;20509;-58
2022/09/14 05:10:57;;;;;;;10.68;6.05;;;20.90;99.90;;;;;;10132269;28;20509;-59
2022/09/14 05:15:48;;;;;;;;;;;21.00;99.90;;;;;;10133797;28;20033;-59
2022/09/14 05:20:38;;;;;;;9.85;5.90;;;20.90;99.90;;;;;;10133338;28;19910;-60
2022/09/14 05:25:29;;;;;;;9.20;6.05;;;21.10;99.90;;;;;;10115352;28;20052;-60
2022/09/14 05:30:20;;;;;;;9.57;5.38;;;21.10;99.90;;;;;;10114571;28;20027;-64
2022/09/14 05:35:11;;;;;;;12.23;5.93;;;21.20;99.90;;;;;;10133538;28;20043;-62
2022/09/14 05:40:02;;;;;;;7.50;5.60;;;21.30;99.90;;;;;;10131241;28;20070;-61
2022/09/14 05:44:52;;;;;;;7.70;5.80;;;21.10;99.90;;;;;;10117251;28;20051;-61
2022/09/14 05:49:43;;;;;;;8.60;5.05;;;21.20;99.90;;;;;;10123983;28;20116;-64
2022/09/14 05:54:33;;;;;;;9.88;5.15;;;21.20;99.90;;;;;;10130184;28;20190;-60
2022/09/14 05:59:24;;;;;;;7.93;5.70;;;21.40;99.90;;;;;;10131427;28;20329;-62
2022/09/14 06:04:14;;;;;;;10.32;6.07;;;21.40;99.90;;;;;;10127567;28;20131;-59
2022/09/14 06:09:05;;;;;;;7.15;4.65;;;21.60;99.90;;;;;;10130016;28;20024;-63
2022/09/14 06:13:57;;;;;;;9.27;5.43;;;21.60;99.90;;;;;;10131145;28;20024;-62
2022/09/14 06:18:48;;;;;;;10.27;5.75;;;21.70;99.90;;;;;;10131148;28;20017;-63
2022/09/14 06:23:38;;;;;;;9.45;5.32;;;21.60;99.90;;;;;;10131080;28;20036;-63
2022/09/14 06:28:30;;;;;;;10.40;5.38;;;21.70;99.90;;;;;;10121818;28;20027;-59
2022/09/14 06:33:21;;;;;;;12.93;7.60;;;21.70;99.90;;;;;;10130922;28;20043;-58
2022/09/14 06:38:13;;;;;;;10.32;6.22;;;21.80;99.90;;;;;;10111322;28;20052;-59
2022/09/14 06:43:04;;;;;;;8.73;4.57;;;21.80;99.90;;;;;;10090895;28;20404;-56
2022/09/14 06:47:55;;;;;;;7.45;4.30;;;22.00;99.90;;;;;;10090467;28;20509;-59
2022/09/14 06:52:46;;;;;;;9.10;4.45;;;22.10;99.90;;;;;;10093469;28;20055;-59
2022/09/14 06:57:36;;;;;;;7.30;5.00;;;22.10;99.90;;;;;;10077648;28;20066;-59
2022/09/14 07:02:27;;;;;;;7.57;4.45;;;22.00;99.90;;;;;;10094639;28;20040;-60
2022/09/14 07:07:18;;;;;;;6.60;4.45;;;22.10;99.90;;;;;;10093549;28;20104;-61
2022/09/14 07:12:10;;;;;;;6.63;4.22;;;22.20;99.90;;;;;;10096111;28;20055;-60
2022/09/14 07:17:01;;;;;;;5.80;4.47;;;22.20;99.90;;;;;;10095763;28;20115;-62
2022/09/14 07:21:53;;;;;;;6.10;4.25;;;22.40;99.90;;;;;;10097175;28;20116;-56
2022/09/14 07:26:44;;;;;;;9.13;4.22;;;22.40;99.90;;;;;;10093326;28;20391;-59
2022/09/14 07:31:49;;;;;;;5.80;4.18;;;22.60;99.90;;;;;;10095745;28;20032;-61
2022/09/14 07:36:41;;;;;;;5.53;4.78;;;22.70;99.90;;;;;;10094008;28;20037;-59
2022/09/14 07:41:33;;;;;;;5.15;3.72;;;22.80;99.90;;;;;;10095386;28;20025;-60
2022/09/14 07:46:23;;;;;;;7.88;4.03;;;22.70;99.90;;;;;;10094832;28;20439;-61
2022/09/14 07:51:14;;;;;;;7.57;4.40;;;22.80;99.90;;;;;;10095429;28;20021;-59
2022/09/14 07:56:06;;;;;;;10.30;3.55;;;22.90;99.90;;;;;;10094209;28;20168;-60
2022/09/14 08:01:11;;;;;;;6.93;4.15;;;23.00;99.90;;;;;;10094108;28;20040;-58
2022/09/14 08:06:04;;;;;;;;;;;23.00;99.90;;;;;;10090207;28;20119;-58
2022/09/14 08:10:58;;;;;;;9.40;4.38;;;23.30;99.90;;;;;;10093892;28;19916;-59
2022/09/14 08:15:48;;;;;;;5.07;3.30;;;23.40;99.90;;;;;;10093114;28;20641;-61
2022/09/14 08:20:39;;;;;;;7.00;3.13;;;23.70;99.90;;;;;;10093472;28;20100;-60
2022/09/14 08:25:30;;;;;;;7.00;3.00;;;23.80;99.90;;;;;;10090991;28;20032;-56
2022/09/14 08:30:20;;;;;;;5.30;2.30;;;24.00;99.90;;;;;;10094887;28;20017;-57
2022/09/14 08:35:11;;;;;;;6.22;2.65;;;24.20;99.90;;;;;;10095660;28;20025;-61
2022/09/14 08:40:02;;;;;;;3.85;2.30;;;24.40;99.90;;;;;;10092500;28;20107;-58
2022/09/14 08:44:57;;;;;;;4.40;2.13;;;24.50;99.90;;;;;;10095229;28;20075;-59
2022/09/14 08:49:57;;;;;;;5.78;2.30;;;24.70;99.90;;;;;;10093782;28;20040;-61
2022/09/14 08:54:51;;;;;;;3.22;2.10;;;24.90;99.90;;;;;;10086797;28;20029;-60
2022/09/14 09:00:00;;;;;;;4.50;2.23;;;25.10;99.90;;;;;;10091331;28;20017;-60
2022/09/14 09:05:10;;;;;;;8.82;3.45;;;25.30;99.90;;;;;;10083478;28;20041;-59
2022/09/14 09:10:05;;;;;;;5.35;2.30;;;25.50;99.90;;;;;;10084652;28;20029;-61
2022/09/14 09:15:01;;;;;;;5.15;2.25;;;25.60;99.90;;;;;;10084915;28;20402;-59
2022/09/14 09:20:15;;;;;;;3.55;2.33;;;25.50;99.90;;;;;;10091660;28;20504;-60
2022/09/14 09:25:23;;;;;;;4.75;2.35;;;25.40;99.90;;;;;;10087328;28;20476;-59
2022/09/14 09:30:15;;;;;;;6.68;3.50;;;25.50;99.90;;;;;;10083944;28;20054;-61
2022/09/14 09:35:05;;;;;;;5.18;2.45;;;25.70;99.90;;;;;;10084020;28;20029;-60
2022/09/14 09:39:56;;;;;;;9.23;4.43;;;26.00;99.90;;;;;;10086715;28;20049;-59
2022/09/14 09:45:08;;;;;;;3.15;1.77;;;26.10;99.90;;;;;;10091330;28;20068;-59
2022/09/14 09:50:02;;;;;;;4.40;2.78;;;26.00;99.90;;;;;;10085870;28;20040;-59
2022/09/14 09:54:55;;;;;;;1.97;1.67;;;26.00;99.90;;;;;;10090796;28;20041;-58
2022/09/14 09:59:47;;;;;;;1.90;1.73;;;26.00;99.90;;;;;;10089515;28;20118;-57
2022/09/14 10:04:53;;;;;;;2.70;1.85;;;26.10;99.90;;;;;;10089209;28;20082;-59
2022/09/14 10:10:05;;;;;;;3.53;3.20;;;26.30;99.90;;;;;;10090593;28;20017;-60
2022/09/14 10:15:26;;;;;;;3.92;1.98;;;26.30;99.90;;;;;;10088687;28;20106;-58
2022/09/14 10:20:23;;;;;;;2.70;2.05;;;26.20;99.90;;;;;;10085636;28;20025;-55
2022/09/14 10:25:13;;;;;;;3.63;2.40;;;26.40;99.90;;;;;;10090141;28;20041;-58
2022/09/14 10:30:16;;;;;;;4.35;2.67;;;26.70;99.90;;;;;;10093349;28;20025;-61
2022/09/14 10:35:14;;;;;;;7.75;3.97;;;27.00;99.90;;;;;;10098791;28;20035;-59
2022/09/14 10:40:18;;;;;;;4.10;2.25;;;27.20;99.90;;;;;;10090312;28;20064;-59
2022/09/14 10:45:34;;;;;;;5.93;3.35;;;27.20;99.90;;;;;;10098582;28;20033;-58
2022/09/14 10:50:40;;;;;;;6.88;3.30;;;27.30;99.90;;;;;;10097328;28;20078;-58
2022/09/14 10:55:53;;;;;;;5.13;2.00;;;27.50;99.90;;;;;;10096737;28;20087;-59
2022/09/14 11:01:32;;;;;;;3.38;2.20;;;27.30;99.90;;;;;;10094217;28;20052;-57
2022/09/14 11:06:51;;;;;;;4.40;2.55;;;27.10;99.90;;;;;;10089089;28;20033;-59
2022/09/14 11:11:56;;;;;;;4.57;2.35;;;26.90;99.90;;;;;;10092855;28;20499;-59
2022/09/14 11:16:47;;;;;;;4.28;2.17;;;26.60;99.90;;;;;;10095407;28;20521;-58
2022/09/14 11:22:10;;;;;;;4.80;1.85;;;26.40;99.90;;;;;;10098308;28;20033;-58
2022/09/14 11:27:06;;;;;;;6.32;3.58;;;26.10;99.90;;;;;;10032859;28;20123;-57
2022/09/14 11:32:10;;;;;;;6.22;2.08;;;25.90;99.90;;;;;;10083861;28;20029;-59
2022/09/14 11:37:11;;;;;;;4.47;2.83;;;25.70;99.90;;;;;;10094142;28;20057;-58
2022/09/14 11:42:33;;;;;;;5.45;2.42;;;24.70;99.90;;;;;;10097342;28;20021;-55
2022/09/14 11:47:25;;;;;;;7.70;1.77;;;23.40;99.90;;;;;;10071886;28;20171;-56
2022/09/14 11:52:22;;;;;;;6.65;1.80;;;21.80;99.90;;;;;;10072675;28;20286;-54
2022/09/14 11:57:17;;;;;;;4.93;2.38;;;21.50;99.90;;;;;;10097045;28;20906;-58
2022/09/14 12:02:26;;;;;;;6.72;1.90;;;21.50;99.90;;;;;;10086101;28;20036;-56
2022/09/14 12:07:46;;;;;;;7.82;2.78;;;21.40;99.90;;;;;;10094907;28;20481;-62
2022/09/14 12:12:37;;;;;;;3.30;1.95;;;21.50;99.90;;;;;;10089362;28;20029;-57
2022/09/14 12:17:31;;;;;;;3.30;2.28;;;21.70;99.90;;;;;;10095278;28;20372;-60
2022/09/14 12:22:36;;;;;;;3.42;1.75;;;21.90;99.90;;;;;;10070177;28;20052;-59
2022/09/14 12:27:31;;;;;;;3.97;1.23;;;21.90;99.90;;;;;;10090831;28;20472;-58
2022/09/14 12:32:39;;;;;;;4.05;1.42;;;21.70;99.90;;;;;;10090535;28;20033;-54
2022/09/14 12:37:31;;;;;;;2.08;1.15;;;21.70;99.90;;;;;;10090116;28;20060;-57
2022/09/14 12:42:30;;;;;;;2.33;1.20;;;21.80;99.90;;;;;;10089181;28;20029;-59
2022/09/14 12:47:24;;;;;;;2.33;1.20;;;21.90;99.90;;;;;;10089065;28;20032;-52
2022/09/14 12:52:32;;;;;;;4.20;0.93;;;21.90;99.90;;;;;;10073709;28;20040;-53
2022/09/14 12:57:48;;;;;;;2.45;1.63;;;22.00;99.90;;;;;;10089367;28;20017;-53
2022/09/14 13:03:20;;;;;;;2.55;1.10;;;22.10;99.90;;;;;;10073664;28;20040;-56
2022/09/14 13:08:15;;;;;;;3.08;1.13;;;22.20;99.90;;;;;;10089168;28;20033;-57
2022/09/14 13:13:24;;;;;;;2.08;1.23;;;22.10;99.90;;;;;;10091180;28;20107;-56
2022/09/14 13:18:17;;;;;;;1.92;0.75;;;22.10;99.90;;;;;;10089020;28;20029;-58
2022/09/14 13:23:19;;;;;;;3.83;1.00;;;22.00;99.90;;;;;;10089921;28;20124;-58
2022/09/14 13:28:16;;;;;;;1.73;0.98;;;22.20;99.90;;;;;;10054915;28;20445;-56
2022/09/14 13:33:15;;;;;;;4.00;1.20;;;22.30;99.90;;;;;;10091325;28;20033;-54
2022/09/14 13:38:15;;;;;;;0.80;0.77;;;22.50;99.90;;;;;;10070960;28;20127;-55
2022/09/14 13:43:06;;;;;;;1.90;0.80;;;22.50;99.90;;;;;;10091772;28;20048;-54
2022/09/14 13:47:57;;;;;;;4.80;1.20;;;22.40;99.90;;;;;;10090533;28;20023;-58
2022/09/14 13:52:48;;;;;;;1.27;0.80;;;22.40;99.90;;;;;;10090680;28;20025;-59
2022/09/14 13:57:39;;;;;;;1.77;0.80;;;22.40;99.90;;;;;;10084723;28;20018;-56
2022/09/14 14:02:33;;;;;;;3.97;1.40;;;22.20;99.90;;;;;;10088488;28;20039;-56
2022/09/14 14:07:33;;;;;;;1.90;0.85;;;22.10;99.90;;;;;;10099442;28;20040;-59
2022/09/14 14:12:30;;;;;;;2.15;1.05;;;21.90;99.90;;;;;;10094110;28;20215;-59
2022/09/14 14:17:23;;;;;;;2.28;1.00;;;22.00;99.90;;;;;;10098579;28;20025;-54
2022/09/14 14:22:14;;;;;;;1.67;1.23;;;22.10;99.90;;;;;;10097008;28;20021;-59
2022/09/14 14:27:05;;;;;;;3.15;1.08;;;22.30;99.90;;;;;;10097447;28;20086;-59
2022/09/14 14:31:57;;;;;;;1.70;0.73;;;22.50;99.90;;;;;;10099441;28;20444;-58
2022/09/14 14:36:49;;;;;;;1.50;0.90;;;22.80;99.90;;;;;;10096287;28;20041;-58
2022/09/14 14:41:39;;;;;;;1.63;0.93;;;22.90;99.90;;;;;;10098043;28;20181;-59
2022/09/14 14:46:30;;;;;;;3.08;1.30;;;23.00;99.90;;;;;;10097679;28;20185;-57
2022/09/14 14:51:21;;;;;;;3.83;1.05;;;22.80;99.90;;;;;;10079696;28;20490;-57
2022/09/14 14:56:12;;;;;;;1.23;0.80;;;22.80;99.90;;;;;;10098551;28;20017;-56
2022/09/14 15:01:03;;;;;;;2.70;1.00;;;22.90;99.90;;;;;;10090203;28;20034;-54
2022/09/14 15:05:54;;;;;;;1.33;0.85;;;22.70;99.90;;;;;;10091418;28;20041;-57
2022/09/14 15:10:45;;;;;;;1.52;0.65;;;22.60;99.90;;;;;;10097296;28;20028;-57
2022/09/14 15:15:39;;;;;;;3.72;0.90;;;22.70;99.90;;;;;;10091405;28;20411;-58
2022/09/14 15:20:30;;;;;;;1.87;1.20;;;22.90;99.90;;;;;;10065199;28;20055;-52
2022/09/14 15:25:21;;;;;;;2.72;1.10;;;23.30;99.90;;;;;;10094715;28;20529;-52
2022/09/14 15:30:13;;;;;;;4.05;0.88;;;23.70;99.90;;;;;;10096860;28;20503;-57
2022/09/14 15:35:05;;;;;;;2.45;0.90;;;23.90;99.90;;;;;;10091954;28;20044;-59
2022/09/14 15:39:56;;;;;;;3.10;1.10;;;23.90;99.90;;;;;;10093879;28;20080;-63
2022/09/14 15:44:46;;;;;;;1.40;0.85;;;24.00;99.90;;;;;;10096840;28;20036;-59
2022/09/14 15:49:37;;;;;;;1.85;1.02;;;26.10;99.90;;;;;;10095258;28;20063;-59
2022/09/14 15:54:31;;;;;;;1.77;0.77;;;27.30;99.90;;;;;;10095038;28;20031;-58
2022/09/14 15:59:22;;;;;;;2.78;1.45;;;27.20;99.90;;;;;;10092280;28;20009;-59
2022/09/14 16:04:13;;;;;;;2.13;0.90;;;28.90;99.90;;;;;;10094977;28;20037;-59
2022/09/14 16:09:05;;;;;;;1.73;0.90;;;27.20;99.90;;;;;;10095093;28;20041;-57
2022/09/14 16:13:56;;;;;;;1.17;0.70;;;25.10;99.90;;;;;;10067269;28;20039;-57
2022/09/14 16:18:50;;;;;;;2.20;0.88;;;23.80;99.90;;;;;;10094615;28;20028;-56
2022/09/14 16:23:47;;;;;;;1.27;0.90;;;23.40;99.90;;;;;;10093179;28;20557;-59
2022/09/14 16:28:39;;;;;;;3.45;1.02;;;23.20;99.90;;;;;;10084077;28;20607;-59
2022/09/14 16:33:30;;;;;;;1.63;0.90;;;23.10;99.90;;;;;;10068168;28;20021;-59
2022/09/14 16:38:20;;;;;;;1.58;1.10;;;23.00;99.90;;;;;;10089917;28;20499;-60
2022/09/14 16:43:11;;;;;;;1.73;1.35;;;23.00;99.90;;;;;;10070668;28;20036;-61
2022/09/14 16:48:02;;;;;;;2.33;1.30;;;23.00;99.90;;;;;;10092229;28;20020;-61
2022/09/14 16:52:52;;;;;;;2.50;1.33;;;23.00;99.90;;;;;;10092638;28;20032;-61
2022/09/14 16:57:43;;;;;;;3.65;1.35;;;22.90;99.90;;;;;;10088175;28;20520;-59
2022/09/14 17:02:33;;;;;;;1.52;1.10;;;22.90;99.90;;;;;;10089705;28;20029;-60
2022/09/14 17:07:24;;;;;;;2.22;1.15;;;22.80;99.90;;;;;;10090117;28;20014;-60
2022/09/14 17:12:15;;;;;;;3.60;1.23;;;22.80;99.90;;;;;;10087729;28;20028;-56
2022/09/14 17:17:06;;;;;;;3.83;1.13;;;22.70;99.90;;;;;;10091515;28;20556;-50
2022/09/14 17:21:56;;;;;;;4.15;1.48;;;22.60;99.90;;;;;;10092348;28;20499;-56
2022/09/14 17:26:48;;;;;;;2.60;1.60;;;22.60;99.90;;;;;;10088234;28;20023;-55
2022/09/14 17:31:40;;;;;;;2.05;1.38;;;22.60;99.90;;;;;;10088882;28;20055;-58
2022/09/14 17:36:31;;;;;;;2.17;1.38;;;22.60;99.90;;;;;;10089084;28;20400;-60
2022/09/14 17:41:24;;;;;;;3.58;1.70;;;22.50;99.90;;;;;;10094422;28;20024;-58
2022/09/14 17:46:15;;;;;;;2.47;1.88;;;22.50;99.90;;;;;;10094541;28;20076;-60
2022/09/14 17:51:09;;;;;;;2.17;1.50;;;22.40;99.90;;;;;;10089132;28;20100;-58
2022/09/14 17:56:02;;;;;;;3.28;1.63;;;22.40;99.90;;;;;;10080922;28;20017;-60
2022/09/14 18:01:04;;;;;;;3.13;1.40;;;22.50;99.90;;;;;;10093973;28;20068;-59
2022/09/14 18:05:55;;;;;;;9.52;1.77;;;22.50;99.90;;;;;;10080913;28;20042;-60
2022/09/14 18:10:45;;;;;;;3.20;1.35;;;22.40;99.90;;;;;;10093736;28;20107;-62
2022/09/14 18:15:36;;;;;;;1.77;1.23;;;22.40;99.90;;;;;;10087535;28;20476;-66
2022/09/14 18:20:26;;;;;;;3.00;1.60;;;22.50;99.90;;;;;;10093098;28;20327;-63
2022/09/14 18:25:17;;;;;;;5.13;1.90;;;22.40;99.90;;;;;;10091759;28;20037;-61
2022/09/14 18:30:08;;;;;;;2.28;1.73;;;22.40;99.90;;;;;;10075150;28;20029;-61
2022/09/14 18:34:59;;;;;;;3.15;1.92;;;22.40;99.90;;;;;;10085779;28;20029;-63
2022/09/14 18:39:50;;;;;;;2.42;1.50;;;22.50;99.90;;;;;;10089746;28;20553;-62
2022/09/14 18:44:41;;;;;;;7.22;1.90;;;22.50;99.90;;;;;;10091606;28;20053;-60
2022/09/14 18:49:31;;;;;;;4.70;2.33;;;22.50;99.90;;;;;;10075685;28;20106;-61
2022/09/14 18:54:22;;;;;;;2.30;1.65;;;22.50;99.90;;;;;;10099112;28;20503;-62
2022/09/14 18:59:14;;;;;;;3.47;1.95;;;22.50;99.90;;;;;;10098294;28;20630;-60
2022/09/14 19:04:06;;;;;;;3.75;1.40;;;22.50;99.90;;;;;;10092899;28;20116;-61
2022/09/14 19:08:57;;;;;;;3.70;1.50;;;22.50;99.90;;;;;;10097931;28;20111;-61
2022/09/14 19:13:53;;;;;;;2.65;1.83;;;22.50;99.90;;;;;;10092442;28;20369;-61
2022/09/14 19:18:46;;;;;;;2.00;1.50;;;22.40;99.90;;;;;;10094735;28;20521;-64
2022/09/14 19:23:37;;;;;;;2.40;1.70;;;22.40;99.90;;;;;;10095112;28;20035;-60
2022/09/14 19:28:28;;;;;;;3.00;1.52;;;22.30;99.90;;;;;;10083780;28;20112;-59
2022/09/14 19:33:18;;;;;;;2.80;1.55;;;22.30;99.90;;;;;;10097281;28;20471;-60
2022/09/14 19:38:09;;;;;;;2.22;1.52;;;22.10;99.90;;;;;;10093335;28;20120;-59
2022/09/14 19:43:00;;;;;;;3.55;1.67;;;22.10;99.90;;;;;;10136176;28;20043;-60
2022/09/14 19:47:50;;;;;;;3.42;2.08;;;22.00;99.90;;;;;;10135897;28;20028;-61
2022/09/14 19:52:41;;;;;;;3.33;1.80;;;22.00;99.90;;;;;;10136387;28;20024;-60
2022/09/14 19:57:33;;;;;;;2.00;1.55;;;22.00;99.90;;;;;;10135114;28;20079;-60
2022/09/14 20:02:23;;;;;;;2.92;1.33;;;21.90;99.90;;;;;;10136495;28;20079;-60
2022/09/14 20:07:14;;;;;;;2.80;1.75;;;22.00;99.90;;;;;;10114695;28;20020;-56
2022/09/14 20:12:04;;;;;;;2.05;1.52;;;22.00;99.90;;;;;;10133673;28;20499;-57
2022/09/14 20:16:57;;;;;;;2.95;1.33;;;22.00;99.90;;;;;;10137584;28;20032;-58
2022/09/14 20:21:49;;;;;;;6.85;1.98;;;22.00;99.90;;;;;;10135840;28;20020;-56
2022/09/14 20:26:40;;;;;;;2.20;1.50;;;22.10;99.90;;;;;;10130132;28;20083;-59
2022/09/14 20:31:31;;;;;;;2.65;1.88;;;22.00;99.90;;;;;;10116473;28;20025;-59
2022/09/14 20:36:24;;;;;;;3.70;2.00;;;22.00;99.90;;;;;;10134833;28;20423;-60
2022/09/14 20:41:16;;;;;;;3.03;1.52;;;22.00;99.90;;;;;;10135090;28;20410;-60
2022/09/14 20:46:11;;;;;;;4.32;2.03;;;22.00;99.90;;;;;;10134213;28;20168;-58
2022/09/14 20:51:02;;;;;;;3.00;1.87;;;22.10;99.90;;;;;;10130705;28;20017;-62
2022/09/14 20:56:03;;;;;;;8.00;1.70;;;22.00;99.90;;;;;;10134404;28;20033;-60
2022/09/14 21:01:00;;;;;;;5.80;2.08;;;22.00;99.90;;;;;;10134291;28;20067;-60
2022/09/14 21:05:52;;;;;;;4.13;1.55;;;22.00;99.90;;;;;;10130925;28;20029;-61
2022/09/14 21:10:43;;;;;;;2.25;1.70;;;22.00;99.90;;;;;;10132583;28;20401;-59
2022/09/14 21:15:33;;;;;;;3.55;1.50;;;22.00;99.90;;;;;;10132646;28;20119;-58
2022/09/14 21:20:24;;;;;;;3.65;1.88;;;22.00;99.90;;;;;;10133429;28;20048;-60
2022/09/14 21:25:14;;;;;;;5.22;1.80;;;21.90;99.90;;;;;;10129850;28;20037;-60
2022/09/14 21:30:06;;;;;;;4.95;1.40;;;21.80;99.90;;;;;;10109350;28;20042;-55
2022/09/14 21:34:57;;;;;;;1.42;1.00;;;20.10;99.90;;;;;;10131893;28;20025;-57
2022/09/14 21:39:48;;;;;;;1.60;0.90;;;19.30;99.90;;;;;;10134567;28;20630;-59
2022/09/14 21:44:38;;;;;;;1.88;0.75;;;18.90;99.90;;;;;;10132768;28;20264;-57
2022/09/14 21:49:29;;;;;;;1.45;0.88;;;18.90;99.90;;;;;;10132743;28;20107;-57
2022/09/14 21:54:21;;;;;;;1.00;0.68;;;18.90;99.90;;;;;;10132147;28;20455;-59
2022/09/14 21:59:14;;;;;;;1.63;0.63;;;19.00;99.90;;;;;;10133140;28;20009;-56
2022/09/14 22:04:05;;;;;;;2.97;1.00;;;19.10;99.90;;;;;;10133289;28;20020;-61
2022/09/14 22:08:59;;;;;;;2.08;0.95;;;19.20;99.90;;;;;;10132677;28;20255;-62
2022/09/14 22:13:55;;;;;;;1.42;1.05;;;19.40;99.90;;;;;;10130019;28;20024;-54
2022/09/14 22:18:47;;;;;;;;;;;19.60;99.90;;;;;;10131571;28;20020;-59
2022/09/14 22:23:38;;;;;;;2.42;0.70;;;19.70;99.90;;;;;;10138255;28;19924;-54
2022/09/14 22:28:29;;;;;;;1.05;0.55;;;19.80;99.90;;;;;;10138799;28;20028;-58
2022/09/14 22:33:24;;;;;;;2.72;0.90;;;19.80;99.90;;;;;;10141081;28;20490;-61
2022/09/14 22:38:14;;;;;;;0.90;0.77;;;19.90;99.90;;;;;;10140907;28;20064;-59
2022/09/14 22:43:05;;;;;;;1.67;0.90;;;19.90;99.90;;;;;;10139836;28;20514;-60
2022/09/14 22:47:56;;;;;;;1.80;0.90;;;19.90;99.90;;;;;;10139621;28;20017;-58
2022/09/14 22:52:46;;;;;;;3.92;1.95;;;20.00;99.90;;;;;;10138418;28;20043;-62
2022/09/14 22:57:37;;;;;;;1.95;0.60;;;19.90;99.90;;;;;;10137540;28;20375;-60
2022/09/14 23:02:27;;;;;;;2.05;0.93;;;20.00;99.90;;;;;;10137531;28;20047;-61
2022/09/14 23:07:18;;;;;;;2.13;0.80;;;20.10;99.90;;;;;;10134514;28;20028;-62
2022/09/14 23:12:09;;;;;;;2.70;0.85;;;20.00;99.90;;;;;;10132072;28;20024;-58
2022/09/14 23:17:00;;;;;;;1.52;1.20;;;20.10;99.90;;;;;;10137082;28;20025;-58
2022/09/14 23:21:50;;;;;;;2.58;1.35;;;20.10;99.90;;;;;;10137575;28;20020;-60
2022/09/14 23:26:41;;;;;;;2.83;1.00;;;20.00;99.90;;;;;;10128325;28;20032;-59
2022/09/14 23:31:33;;;;;;;3.67;1.08;;;20.10;99.90;;;;;;10137295;28;20023;-62
2022/09/14 23:36:24;;;;;;;2.55;1.10;;;20.10;99.90;;;;;;10137220;28;20024;-61
2022/09/14 23:41:16;;;;;;;2.08;0.95;;;20.10;99.90;;;;;;10137329;28;20032;-61
2022/09/14 23:46:07;;;;;;;1.20;1.08;;;20.10;99.90;;;;;;10136133;28;20358;-59
2022/09/14 23:50:59;;;;;;;5.07;1.08;;;20.10;99.90;;;;;;10134506;28;20465;-58
2022/09/14 23:55:50;;;;;;;2.55;1.27;;;20.10;99.90;;;;;;10133741;28;20259;-59
